createdAt,value
2022-08-14T00:01:54.796Z,39.87
2022-08-14T00:03:58.546Z,39.44
2022-08-14T00:06:13.999Z,39.53
2022-08-14T00:08:44.380Z,40.11
2022-08-14T00:10:52.147Z,39.95
2022-08-14T00:12:57.356Z,40.34
2022-08-14T00:15:00.935Z,40.36
2022-08-14T00:17:06.490Z,40.50
2022-08-14T00:19:19.463Z,40.59
2022-08-14T00:21:29.254Z,40.54
2022-08-14T00:23:35.350Z,40.59
2022-08-14T00:25:42.074Z,40.91
2022-08-14T00:27:49.148Z,40.98
2022-08-14T00:29:57.130Z,41.00
2022-08-14T00:32:00.055Z,41.18
2022-08-14T00:34:36.830Z,41.37
2022-08-14T00:36:35.716Z,41.38
2022-08-14T00:38:50.253Z,41.15
2022-08-14T00:40:53.319Z,41.28
2022-08-14T00:42:57.635Z,42.01
2022-08-14T00:45:00.494Z,42.42
2022-08-14T00:47:06.057Z,42.73
2022-08-14T00:49:14.771Z,43.03
2022-08-14T00:51:18.121Z,43.03
2022-08-14T00:53:21.356Z,42.62
2022-08-14T00:55:27.834Z,42.30
2022-08-14T00:57:35.343Z,42.60
2022-08-14T00:59:39.495Z,42.29
2022-08-14T01:01:43.372Z,42.05
2022-08-14T01:03:52.625Z,41.71
2022-08-14T01:05:56.687Z,41.76
2022-08-14T01:08:01.379Z,41.02
2022-08-14T01:10:07.192Z,41.10
2022-08-14T01:12:13.003Z,41.16
2022-08-14T01:14:29.618Z,41.07
2022-08-14T01:16:32.562Z,40.83
2022-08-14T01:19:01.007Z,41.04
2022-08-14T01:21:09.318Z,41.24
2022-08-14T01:23:18.869Z,41.10
2022-08-14T01:25:23.048Z,41.23
2022-08-14T01:27:28.601Z,41.31
2022-08-14T01:30:01.451Z,41.23
2022-08-14T01:32:04.465Z,41.32
2022-08-14T01:35:21.072Z,41.44
2022-08-14T01:36:39.290Z,41.61
2022-08-14T01:38:48.798Z,41.75
2022-08-14T01:40:52.021Z,42.05
2022-08-14T01:42:57.202Z,41.85
2022-08-14T01:45:01.098Z,41.90
2022-08-14T01:47:21.812Z,42.58
2022-08-14T01:49:26.388Z,42.22
2022-08-14T01:51:41.055Z,42.46
2022-08-14T01:53:48.355Z,42.56
2022-08-14T01:55:58.981Z,42.70
2022-08-14T01:58:19.509Z,42.88
2022-08-14T02:00:23.963Z,43.05
2022-08-14T02:02:31.070Z,43.30
2022-08-14T02:04:56.865Z,43.05
2022-08-14T02:07:02.204Z,43.24
2022-08-14T02:09:22.372Z,43.34
2022-08-14T02:11:26.480Z,43.94
2022-08-14T02:13:32.067Z,43.87
2022-08-14T02:15:40.808Z,44.13
2022-08-14T02:17:46.591Z,43.90
2022-08-14T02:19:53.347Z,44.03
2022-08-14T02:21:57.855Z,43.82
2022-08-14T02:24:07.046Z,44.00
2022-08-14T02:26:33.881Z,44.03
2022-08-14T02:29:00.925Z,43.41
2022-08-14T02:31:08.807Z,43.39
2022-08-14T02:33:11.921Z,43.39
2022-08-14T02:35:17.745Z,43.90
2022-08-14T02:37:21.406Z,43.99
2022-08-14T02:39:24.342Z,44.08
2022-08-14T02:41:36.662Z,44.10
2022-08-14T02:43:46.211Z,44.15
2022-08-14T02:45:49.565Z,44.27
2022-08-14T02:47:53.742Z,44.06
2022-08-14T02:50:00.525Z,44.03
2022-08-14T02:52:56.263Z,44.21
2022-08-14T02:54:30.418Z,43.75
2022-08-14T02:57:16.396Z,44.22
2022-08-14T02:59:01.847Z,44.17
2022-08-14T03:01:09.810Z,44.19
2022-08-14T03:03:12.767Z,44.44
2022-08-14T03:05:16.529Z,44.32
2022-08-14T03:07:19.600Z,44.54
2022-08-14T03:09:22.567Z,44.72
2022-08-14T03:11:26.448Z,44.94
2022-08-14T03:13:41.372Z,45.01
2022-08-14T03:15:47.608Z,44.86
2022-08-14T03:17:56.940Z,44.87
2022-08-14T03:20:01.057Z,44.61
2022-08-14T03:22:04.786Z,44.20
2022-08-14T03:24:21.337Z,44.37
2022-08-14T03:26:29.928Z,44.95
2022-08-14T03:28:33.757Z,45.19
2022-08-14T03:30:40.966Z,45.52
2022-08-14T03:32:44.761Z,45.17
2022-08-14T03:34:55.526Z,45.44
2022-08-14T03:37:28.741Z,45.50
2022-08-14T03:39:24.473Z,45.18
2022-08-14T03:41:33.124Z,44.74
2022-08-14T03:43:37.064Z,44.38
2022-08-14T03:45:48.622Z,44.25
2022-08-14T03:47:58.909Z,44.48
2022-08-14T03:50:05.472Z,44.44
2022-08-14T03:52:27.989Z,44.14
2022-08-14T03:54:35.285Z,44.30
2022-08-14T03:56:40.524Z,44.24
2022-08-14T03:58:47.811Z,44.32
2022-08-14T04:00:53.809Z,44.40
2022-08-14T04:02:56.709Z,44.71
2022-08-14T04:05:12.145Z,44.49
2022-08-14T04:07:16.162Z,44.42
2022-08-14T04:09:21.398Z,44.39
2022-08-14T04:11:29.853Z,44.34
2022-08-14T04:13:35.371Z,44.39
2022-08-14T04:15:56.107Z,44.79
2022-08-14T04:18:08.564Z,44.88
2022-08-14T04:20:15.345Z,44.79
2022-08-14T04:22:28.755Z,44.94
2022-08-14T04:24:38.531Z,44.78
2022-08-14T04:26:44.381Z,44.92
2022-08-14T04:29:07.189Z,45.11
2022-08-14T04:31:11.407Z,45.22
2022-08-14T04:33:20.691Z,45.50
2022-08-14T04:35:24.440Z,45.64
2022-08-14T04:38:35.786Z,45.63
2022-08-14T04:40:45.419Z,45.57
2022-08-14T04:43:05.631Z,45.92
2022-08-14T04:45:08.911Z,46.10
2022-08-14T04:47:25.667Z,46.46
2022-08-14T04:49:38.345Z,46.49
2022-08-14T04:51:55.841Z,46.14
2022-08-14T04:54:00.558Z,45.75
2022-08-14T04:56:03.817Z,46.01
2022-08-14T04:58:09.290Z,45.82
2022-08-14T05:00:24.957Z,45.62
2022-08-14T05:02:28.285Z,45.79
2022-08-14T05:04:31.837Z,45.71
2022-08-14T05:06:38.970Z,45.98
2022-08-14T05:08:56.845Z,45.72
2022-08-14T05:11:04.942Z,46.21
2022-08-14T05:13:24.527Z,46.39
2022-08-14T05:15:32.043Z,46.58
2022-08-14T05:17:43.821Z,46.55
2022-08-14T05:21:56.619Z,46.77
2022-08-14T05:22:17.080Z,46.75
2022-08-14T05:24:21.950Z,47.02
2022-08-14T05:26:24.781Z,46.93
2022-08-14T05:28:29.573Z,46.93
2022-08-14T05:30:32.492Z,47.43
2022-08-14T05:32:35.673Z,47.39
2022-08-14T05:34:40.057Z,47.32
2022-08-14T05:36:50.659Z,47.18
2022-08-14T05:39:07.327Z,46.91
2022-08-14T05:41:13.319Z,47.01
2022-08-14T05:43:17.000Z,47.16
2022-08-14T05:45:20.040Z,47.01
2022-08-14T05:47:22.870Z,47.21
2022-08-14T05:49:33.093Z,47.12
2022-08-14T05:51:36.938Z,46.86
2022-08-14T05:53:42.255Z,46.71
2022-08-14T05:55:46.874Z,46.96
2022-08-14T05:57:53.576Z,47.11
2022-08-14T05:59:56.576Z,47.33
2022-08-14T06:01:59.775Z,47.40
2022-08-14T06:04:05.493Z,47.42
2022-08-14T06:06:09.008Z,47.04
2022-08-14T06:08:21.749Z,47.02
2022-08-14T06:10:38.984Z,47.25
2022-08-14T06:12:56.007Z,46.92
2022-08-14T06:15:00.201Z,46.67
2022-08-14T06:17:03.097Z,46.63
2022-08-14T06:19:06.466Z,46.77
2022-08-14T06:21:15.727Z,47.18
2022-08-14T06:23:20.702Z,46.94
2022-08-14T06:25:26.023Z,47.00
2022-08-14T06:27:33.983Z,47.47
2022-08-14T06:29:39.818Z,47.85
2022-08-14T06:31:42.672Z,47.88
2022-08-14T06:35:01.521Z,46.95
2022-08-14T06:36:09.399Z,47.30
2022-08-14T06:38:17.339Z,47.30
2022-08-14T06:40:26.091Z,47.28
2022-08-14T06:42:32.605Z,47.98
2022-08-14T06:44:36.073Z,47.67
2022-08-14T06:46:40.712Z,48.11
2022-08-14T06:48:44.046Z,48.04
2022-08-14T06:50:48.101Z,48.49
2022-08-14T06:52:52.138Z,47.68
2022-08-14T06:54:57.035Z,47.87
2022-08-14T06:57:00.048Z,47.99
2022-08-14T06:59:03.065Z,47.66
2022-08-14T07:01:27.462Z,47.46
2022-08-14T07:03:49.920Z,47.57
2022-08-14T07:05:55.468Z,47.78
2022-08-14T07:08:00.531Z,47.24
2022-08-14T07:10:05.058Z,46.86
2022-08-14T07:12:09.009Z,46.82
2022-08-14T07:14:32.087Z,46.50
2022-08-14T07:16:35.282Z,46.63
2022-08-14T07:18:41.503Z,46.77
2022-08-14T07:20:45.744Z,46.77
2022-08-14T07:22:49.819Z,46.52
2022-08-14T07:24:59.707Z,46.65
2022-08-14T07:27:03.012Z,46.21
2022-08-14T07:29:05.860Z,46.70
2022-08-14T07:31:11.533Z,45.68
2022-08-14T07:33:14.536Z,45.49
2022-08-14T07:35:19.861Z,45.63
2022-08-14T07:37:22.718Z,45.79
2022-08-14T07:39:27.466Z,45.44
2022-08-14T07:41:33.800Z,45.40
2022-08-14T07:43:39.469Z,44.78
2022-08-14T07:45:43.166Z,45.15
2022-08-14T07:47:46.093Z,45.25
2022-08-14T07:49:59.754Z,45.15
2022-08-14T07:52:04.953Z,44.84
2022-08-14T07:54:11.412Z,44.96
2022-08-14T07:56:22.095Z,44.80
2022-08-14T07:58:39.012Z,44.33
2022-08-14T08:00:56.676Z,44.04
2022-08-14T08:03:00.638Z,44.13
2022-08-14T08:05:03.996Z,44.28
2022-08-14T08:07:09.224Z,44.03
2022-08-14T08:09:13.641Z,43.74
2022-08-14T08:11:19.365Z,43.32
2022-08-14T08:13:24.499Z,43.55
2022-08-14T08:15:29.799Z,43.91
2022-08-14T08:17:42.373Z,43.84
2022-08-14T08:19:47.386Z,43.66
2022-08-14T08:21:54.726Z,42.62
2022-08-14T08:23:58.950Z,43.00
2022-08-14T08:26:01.848Z,43.18
2022-08-14T08:28:08.183Z,42.39
2022-08-14T08:30:12.833Z,42.19
2022-08-14T08:32:15.512Z,41.89
2022-08-14T08:34:19.232Z,42.13
2022-08-14T08:36:24.221Z,42.29
2022-08-14T08:39:18.871Z,42.56
2022-08-14T08:41:00.795Z,41.88
2022-08-14T08:43:06.516Z,40.57
2022-08-14T08:45:17.295Z,40.72
2022-08-14T08:47:20.415Z,40.35
2022-08-14T08:49:23.310Z,40.50
2022-08-14T08:51:30.791Z,41.21
2022-08-14T08:53:35.636Z,40.38
2022-08-14T08:55:40.685Z,39.60
2022-08-14T08:57:46.588Z,40.15
2022-08-14T08:59:55.339Z,40.31
2022-08-14T09:02:04.174Z,40.35
2022-08-14T09:04:14.657Z,40.94
2022-08-14T09:07:01.311Z,39.89
2022-08-14T09:08:47.100Z,38.48
2022-08-14T09:10:52.454Z,36.78
2022-08-14T09:13:01.117Z,36.17
2022-08-14T09:15:09.123Z,36.59
2022-08-14T09:17:15.750Z,36.50
2022-08-14T09:19:19.125Z,36.99
2022-08-14T09:21:31.574Z,37.19
2022-08-14T09:24:26.490Z,36.96
2022-08-14T09:26:00.899Z,36.77
2022-08-14T09:28:07.258Z,37.21
2022-08-14T09:30:30.973Z,37.12
2022-08-14T09:32:58.966Z,36.92
2022-08-14T09:35:13.997Z,36.08
2022-08-14T09:37:33.120Z,34.88
2022-08-14T09:39:49.816Z,34.38
2022-08-14T09:42:20.118Z,33.46
2022-08-14T09:44:49.577Z,33.70
2022-08-14T09:46:56.564Z,33.82
2022-08-14T09:49:03.343Z,33.21
2022-08-14T09:51:09.733Z,33.19
2022-08-14T09:53:19.819Z,33.36
2022-08-14T09:55:25.099Z,32.99
2022-08-14T09:57:30.996Z,32.82
2022-08-14T09:59:46.061Z,31.54
2022-08-14T10:01:52.611Z,31.53
2022-08-14T10:03:59.634Z,32.20
2022-08-14T10:06:07.086Z,32.38
2022-08-14T10:08:25.337Z,31.71
2022-08-14T10:10:34.623Z,31.97
2022-08-14T10:12:45.873Z,32.37
2022-08-14T10:14:53.375Z,32.51
2022-08-14T10:16:58.441Z,32.56
2022-08-14T10:19:05.121Z,32.44
2022-08-14T10:21:25.560Z,32.24
2022-08-14T10:23:49.966Z,31.94
2022-08-14T10:26:01.789Z,31.71
2022-08-14T10:28:04.739Z,31.63
2022-08-14T10:30:22.500Z,31.28
2022-08-14T10:32:36.343Z,30.73
2022-08-14T10:34:43.066Z,31.16
2022-08-14T10:36:50.248Z,28.96
2022-08-14T10:39:08.259Z,29.70
2022-08-14T10:41:17.111Z,29.09
2022-08-14T10:43:23.825Z,29.41
2022-08-14T10:45:34.078Z,29.18
2022-08-14T10:48:07.450Z,28.99
2022-08-14T10:50:02.728Z,29.08
2022-08-14T10:52:08.465Z,28.71
2022-08-14T10:54:26.204Z,28.00
2022-08-14T10:56:35.753Z,27.68
2022-08-14T10:58:38.608Z,27.89
2022-08-14T11:00:56.854Z,28.05
2022-08-14T11:03:02.611Z,27.34
2022-08-14T11:05:13.047Z,26.74
2022-08-14T11:07:21.250Z,27.39
2022-08-14T11:09:25.966Z,26.83
2022-08-14T11:11:35.917Z,26.32
2022-08-14T11:13:44.053Z,26.03
2022-08-14T11:15:50.852Z,26.20
2022-08-14T11:18:01.366Z,26.39
2022-08-14T11:20:14.123Z,26.63
2022-08-14T11:22:52.813Z,25.78
2022-08-14T11:24:53.950Z,26.52
2022-08-14T11:27:01.215Z,26.36
2022-08-14T11:29:05.747Z,27.24
2022-08-14T11:31:13.838Z,26.52
2022-08-14T11:33:16.794Z,26.62
2022-08-14T11:35:21.326Z,26.29
2022-08-14T11:37:36.906Z,26.39
2022-08-14T11:39:43.305Z,26.58
2022-08-14T11:41:56.089Z,25.81
2022-08-14T11:43:59.765Z,25.84
2022-08-14T11:46:03.626Z,25.74
2022-08-14T11:49:03.675Z,26.45
2022-08-14T11:50:41.948Z,25.79
2022-08-14T11:52:46.865Z,26.44
2022-08-14T11:55:00.441Z,25.76
2022-08-14T11:57:04.401Z,25.78
2022-08-14T11:59:10.128Z,25.84
2022-08-14T12:01:16.065Z,25.85
2022-08-14T12:03:27.329Z,25.34
2022-08-14T12:05:43.367Z,25.73
2022-08-14T12:07:50.097Z,24.97
2022-08-14T12:09:56.070Z,24.29
2022-08-14T12:11:59.951Z,24.54
2022-08-14T12:14:08.405Z,24.48
2022-08-14T12:16:20.661Z,24.51
2022-08-14T12:18:34.387Z,24.74
2022-08-14T12:20:45.732Z,24.76
2022-08-14T12:22:55.121Z,24.42
2022-08-14T12:24:58.081Z,24.66
2022-08-14T12:27:02.491Z,24.27
2022-08-14T12:29:08.612Z,24.44
2022-08-14T12:31:20.653Z,23.54
2022-08-14T12:33:30.756Z,23.81
2022-08-14T12:35:40.601Z,24.04
2022-08-14T12:37:49.386Z,23.25
2022-08-14T12:39:53.617Z,23.65
2022-08-14T12:42:06.171Z,23.90
2022-08-14T12:44:09.034Z,23.23
2022-08-14T12:46:26.574Z,22.89
2022-08-14T12:48:32.281Z,23.10
2022-08-14T12:50:39.178Z,23.41
2022-08-14T12:52:58.685Z,23.67
2022-08-14T12:55:12.496Z,23.49
2022-08-14T12:57:19.813Z,23.83
2022-08-14T12:59:31.331Z,23.93
2022-08-14T13:01:59.738Z,23.88
2022-08-14T13:04:10.198Z,24.04
2022-08-14T13:06:15.576Z,24.01
2022-08-14T13:08:34.160Z,23.83
2022-08-14T13:10:51.957Z,24.09
2022-08-14T13:13:15.821Z,23.34
2022-08-14T13:15:19.878Z,23.34
2022-08-14T13:17:25.316Z,23.85
2022-08-14T13:19:30.008Z,24.53
2022-08-14T13:22:04.726Z,24.25
2022-08-14T13:23:58.486Z,24.42
2022-08-14T13:26:01.597Z,23.67
2022-08-14T13:28:11.173Z,23.94
2022-08-14T13:30:23.704Z,23.65
2022-08-14T13:32:27.576Z,24.54
2022-08-14T13:34:31.635Z,24.15
2022-08-14T13:36:51.619Z,23.73
2022-08-14T13:39:01.434Z,23.46
2022-08-14T13:41:06.150Z,24.01
2022-08-14T13:43:09.818Z,23.92
2022-08-14T13:45:14.907Z,23.91
2022-08-14T13:47:20.668Z,24.24
2022-08-14T13:49:24.143Z,23.60
2022-08-14T13:51:29.913Z,23.49
2022-08-14T13:53:52.634Z,23.10
2022-08-14T13:56:07.538Z,23.27
2022-08-14T13:58:33.699Z,23.50
2022-08-14T14:00:53.425Z,23.26
2022-08-14T14:02:59.743Z,23.40
2022-08-14T14:05:08.421Z,23.31
2022-08-14T14:07:14.097Z,23.33
2022-08-14T14:09:26.912Z,23.11
2022-08-14T14:11:37.338Z,23.01
2022-08-14T14:13:42.067Z,22.66
2022-08-14T14:15:58.728Z,22.76
2022-08-14T14:18:03.133Z,22.86
2022-08-14T14:20:11.375Z,22.67
2022-08-14T14:23:01.328Z,22.13
2022-08-14T14:24:58.820Z,22.65
2022-08-14T14:27:18.376Z,22.34
2022-08-14T14:29:27.139Z,22.17
2022-08-14T14:31:32.392Z,22.63
2022-08-14T14:33:52.081Z,22.03
2022-08-14T14:35:55.753Z,21.99
2022-08-14T14:37:59.697Z,22.33
2022-08-14T14:40:52.182Z,21.49
2022-08-14T14:42:35.441Z,22.58
2022-08-14T14:44:41.263Z,22.23
2022-08-14T14:46:50.968Z,22.42
2022-08-14T14:48:56.245Z,22.01
2022-08-14T14:51:01.397Z,22.01
2022-08-14T14:53:13.481Z,22.71
2022-08-14T14:55:19.423Z,22.59
2022-08-14T14:57:22.281Z,23.14
2022-08-14T14:59:26.005Z,23.07
2022-08-14T15:01:34.502Z,22.14
2022-08-14T15:03:38.533Z,22.19
2022-08-14T15:05:42.855Z,22.32
2022-08-14T15:07:47.050Z,22.66
2022-08-14T15:09:51.184Z,22.53
2022-08-14T15:11:57.560Z,22.07
2022-08-14T15:14:02.583Z,21.90
2022-08-14T15:16:25.563Z,22.84
2022-08-14T15:18:36.810Z,23.14
2022-08-14T15:20:41.882Z,22.78
2022-08-14T15:22:51.291Z,22.96
2022-08-14T15:24:54.538Z,22.94
2022-08-14T15:26:59.775Z,22.96
2022-08-14T15:29:05.644Z,23.02
2022-08-14T15:31:08.840Z,22.69
2022-08-14T15:33:14.278Z,22.72
2022-08-14T15:35:17.197Z,23.50
2022-08-14T15:37:25.149Z,23.48
2022-08-14T15:39:38.393Z,23.61
2022-08-14T15:41:42.074Z,23.42
2022-08-14T15:43:50.167Z,23.67
2022-08-14T15:45:57.729Z,23.21
2022-08-14T15:48:01.960Z,23.42
2022-08-14T15:50:09.631Z,23.99
2022-08-14T15:52:12.578Z,24.28
2022-08-14T15:54:16.352Z,24.95
2022-08-14T15:56:42.133Z,24.32
2022-08-14T15:58:44.531Z,23.48
2022-08-14T16:01:08.187Z,23.84
2022-08-14T16:03:15.645Z,24.03
2022-08-14T16:05:25.399Z,23.76
2022-08-14T16:07:28.965Z,24.31
2022-08-14T16:09:31.834Z,24.08
2022-08-14T16:11:35.351Z,24.44
2022-08-14T16:13:42.992Z,24.92
2022-08-14T16:15:53.462Z,24.55
2022-08-14T16:17:58.319Z,24.24
2022-08-14T16:20:03.200Z,24.60
2022-08-14T16:22:57.498Z,25.00
2022-08-14T16:24:34.692Z,25.64
2022-08-14T16:26:39.190Z,26.00
2022-08-14T16:28:46.408Z,25.78
2022-08-14T16:30:54.332Z,25.78
2022-08-14T16:33:01.027Z,26.16
2022-08-14T16:35:05.420Z,25.80
2022-08-14T16:37:12.543Z,25.76
2022-08-14T16:39:16.714Z,25.32
2022-08-14T16:41:30.091Z,25.24
2022-08-14T16:43:33.174Z,25.66
2022-08-14T16:45:43.744Z,26.21
2022-08-14T16:47:47.791Z,26.50
2022-08-14T16:50:04.324Z,26.16
2022-08-14T16:52:25.472Z,24.81
2022-08-14T16:54:44.417Z,24.88
2022-08-14T16:56:48.260Z,25.56
2022-08-14T16:59:05.096Z,25.71
2022-08-14T17:01:24.521Z,24.84
2022-08-14T17:03:29.006Z,25.13
2022-08-14T17:05:46.907Z,25.60
2022-08-14T17:08:41.825Z,26.64
2022-08-14T17:10:59.852Z,25.99
2022-08-14T17:13:17.170Z,26.55
2022-08-14T17:15:20.065Z,26.22
2022-08-14T17:17:27.271Z,24.82
2022-08-14T17:19:40.079Z,24.15
2022-08-14T17:21:46.957Z,24.47
2022-08-14T17:23:52.274Z,24.05
2022-08-14T17:25:55.512Z,24.82
2022-08-14T17:28:50.150Z,24.67
2022-08-14T17:30:50.053Z,25.03
2022-08-14T17:32:56.951Z,25.12
2022-08-14T17:35:01.565Z,25.36
2022-08-14T17:37:06.938Z,24.57
2022-08-14T17:39:23.001Z,24.48
2022-08-14T17:41:33.079Z,24.83
2022-08-14T17:43:54.899Z,25.05
2022-08-14T17:45:58.240Z,25.67
2022-08-14T17:48:01.770Z,25.67
2022-08-14T17:51:00.373Z,25.87
2022-08-14T17:52:40.848Z,25.84
2022-08-14T17:54:52.652Z,25.42
2022-08-14T17:57:01.008Z,25.53
2022-08-14T17:59:06.885Z,25.84
2022-08-14T18:01:14.183Z,25.91
2022-08-14T18:03:18.643Z,25.87
2022-08-14T18:06:07.340Z,26.31
2022-08-14T18:08:34.474Z,26.16
2022-08-14T18:10:55.423Z,26.26
2022-08-14T18:12:56.356Z,25.86
2022-08-14T18:15:06.644Z,26.48
2022-08-14T18:17:20.544Z,26.30
2022-08-14T18:19:27.747Z,26.40
2022-08-14T18:21:56.059Z,26.52
2022-08-14T18:23:54.956Z,26.64
2022-08-14T18:25:59.480Z,26.44
2022-08-14T18:28:16.273Z,26.67
2022-08-14T18:30:32.144Z,26.58
2022-08-14T18:32:47.266Z,27.00
2022-08-14T18:35:00.439Z,27.22
2022-08-14T18:37:17.719Z,27.53
2022-08-14T18:39:31.646Z,28.05
2022-08-14T18:41:37.019Z,28.45
2022-08-14T18:43:43.558Z,28.43
2022-08-14T18:46:01.688Z,28.39
2022-08-14T18:48:33.556Z,29.15
2022-08-14T18:50:53.055Z,29.05
2022-08-14T18:53:06.813Z,29.46
2022-08-14T18:55:53.446Z,29.42
2022-08-14T18:58:24.504Z,29.68
2022-08-14T19:00:51.281Z,30.26
2022-08-14T19:02:55.260Z,30.53
2022-08-14T19:05:02.495Z,31.69
2022-08-14T19:07:16.588Z,31.96
2022-08-14T19:09:53.138Z,32.12
2022-08-14T19:11:56.102Z,32.60
2022-08-14T19:14:04.897Z,33.03
2022-08-14T19:16:13.411Z,33.79
2022-08-14T19:18:27.869Z,34.29
2022-08-14T19:20:46.553Z,34.76
2022-08-14T19:23:14.170Z,36.01
2022-08-14T19:25:51.803Z,36.00
2022-08-14T19:28:31.867Z,36.69
2022-08-14T19:30:36.880Z,37.30
2022-08-14T19:32:40.788Z,37.73
2022-08-14T19:34:52.801Z,37.73
2022-08-14T19:37:05.773Z,37.75
2022-08-14T19:39:09.697Z,37.43
2022-08-14T19:41:17.164Z,36.67
2022-08-14T19:43:50.684Z,33.34
2022-08-14T19:45:56.458Z,33.33
2022-08-14T19:47:59.577Z,32.75
2022-08-14T19:50:24.639Z,33.84
2022-08-14T19:52:30.105Z,32.71
2022-08-14T19:54:38.455Z,33.57
2022-08-14T19:56:45.048Z,33.06
2022-08-14T19:58:55.010Z,33.11
2022-08-14T20:01:01.761Z,33.77
2022-08-14T20:03:15.128Z,32.80
2022-08-14T20:05:21.709Z,32.19
2022-08-14T20:08:00.597Z,31.28
2022-08-14T20:11:04.042Z,30.70
2022-08-14T20:12:29.055Z,30.44
2022-08-14T20:14:38.888Z,30.10
2022-08-14T20:16:45.680Z,30.15
2022-08-14T20:18:50.807Z,30.31
2022-08-14T20:20:54.173Z,30.14
2022-08-14T20:22:57.062Z,30.29
2022-08-14T20:25:16.428Z,31.76
2022-08-14T20:27:22.661Z,33.16
2022-08-14T20:29:31.153Z,32.91
2022-08-14T20:31:41.065Z,32.80
2022-08-14T20:34:24.347Z,34.57
2022-08-14T20:36:29.394Z,32.55
2022-08-14T20:38:33.319Z,33.94
2022-08-14T20:40:39.179Z,32.49
2022-08-14T20:43:13.347Z,33.12
2022-08-14T20:45:21.610Z,31.82
2022-08-14T20:47:27.353Z,32.43
2022-08-14T20:49:58.591Z,32.72
2022-08-14T20:52:19.243Z,32.19
2022-08-14T20:54:34.563Z,33.24
2022-08-14T20:56:41.109Z,33.13
2022-08-14T20:58:44.589Z,33.01
2022-08-14T21:00:52.106Z,33.82
2022-08-14T21:02:57.097Z,33.55
2022-08-14T21:05:01.106Z,34.30
2022-08-14T21:07:33.552Z,33.87
2022-08-14T21:10:05.108Z,35.12
2022-08-14T21:12:02.818Z,37.01
2022-08-14T21:14:24.552Z,37.55
2022-08-14T21:16:34.304Z,38.00
2022-08-14T21:18:47.387Z,38.02
2022-08-14T21:20:51.171Z,36.91
2022-08-14T21:22:54.111Z,37.99
2022-08-14T21:25:02.182Z,36.77
2022-08-14T21:27:20.214Z,35.42
2022-08-14T21:29:25.507Z,35.52
2022-08-14T21:31:31.001Z,37.21
2022-08-14T21:33:34.215Z,37.71
2022-08-14T21:35:44.375Z,37.52
2022-08-14T21:37:50.463Z,37.24
2022-08-14T21:39:57.193Z,36.01
2022-08-14T21:42:04.656Z,36.21
2022-08-14T21:44:18.299Z,36.08
2022-08-14T21:46:23.050Z,37.23
2022-08-14T21:48:29.890Z,37.28
2022-08-14T21:50:59.853Z,37.99
2022-08-14T21:53:00.581Z,37.45
2022-08-14T21:55:10.372Z,36.48
2022-08-14T21:57:16.338Z,36.81
2022-08-14T21:59:24.368Z,37.41
2022-08-14T22:02:00.701Z,38.16
2022-08-14T22:03:59.326Z,38.08
2022-08-14T22:06:04.041Z,37.64
2022-08-14T22:08:11.980Z,37.65
2022-08-14T22:10:23.005Z,37.57
2022-08-14T22:12:58.793Z,37.70
2022-08-14T22:14:51.109Z,37.46
2022-08-14T22:17:01.868Z,37.37
2022-08-14T22:19:18.159Z,37.46
2022-08-14T22:21:22.759Z,38.34
2022-08-14T22:23:27.807Z,38.53
2022-08-14T22:25:34.131Z,38.36
2022-08-14T22:27:55.794Z,38.00
2022-08-14T22:29:59.639Z,38.08
2022-08-14T22:32:06.982Z,37.98
2022-08-14T22:34:15.069Z,37.55
2022-08-14T22:36:42.394Z,37.05
2022-08-14T22:38:50.429Z,37.49
2022-08-14T22:41:25.086Z,38.26
2022-08-14T22:43:19.634Z,38.96
2022-08-14T22:45:23.650Z,39.28
2022-08-14T22:47:26.567Z,38.78
2022-08-14T22:50:31.464Z,37.99
2022-08-14T22:52:31.792Z,37.82
2022-08-14T22:54:52.258Z,37.99
2022-08-14T22:56:57.761Z,38.69
2022-08-14T22:59:02.625Z,38.61
2022-08-14T23:01:11.849Z,38.58
2022-08-14T23:03:19.459Z,38.91
2022-08-14T23:05:38.653Z,38.68
2022-08-14T23:09:00.056Z,38.80
2022-08-14T23:10:32.523Z,38.87
2022-08-14T23:12:34.894Z,39.50
2022-08-14T23:14:38.827Z,39.56
2022-08-14T23:16:51.503Z,39.45
2022-08-14T23:19:00.917Z,39.72
2022-08-14T23:21:03.990Z,39.60
2022-08-14T23:23:12.893Z,39.49
2022-08-14T23:25:53.184Z,39.75
2022-08-14T23:28:03.064Z,40.15
2022-08-14T23:30:34.578Z,40.25
2022-08-14T23:32:36.466Z,40.42
2022-08-14T23:34:41.243Z,40.43
2022-08-14T23:36:55.421Z,40.42
2022-08-14T23:39:00.170Z,40.65
2022-08-14T23:41:11.441Z,41.24
2022-08-14T23:43:17.300Z,41.28
2022-08-14T23:45:27.344Z,41.46
2022-08-14T23:47:51.167Z,41.57
2022-08-14T23:50:00.447Z,41.74
2022-08-14T23:52:50.125Z,41.27
2022-08-14T23:54:48.097Z,41.43
2022-08-14T23:57:02.350Z,41.11
2022-08-14T23:59:06.791Z,40.93
